< < Back
Terminal Aerodrome Forecast


Current Version              Previous Versions:   1  2  3  4  5  6  7  8  9  

Terminal Aerodrome Forecast

009
FTUS42 KGSP 272328
TAFGSP
TAF
KGSP 272328Z 2800/2824 35007G15KT P6SM SKC
     FM280800 35003KT P6SM SKC
     FM281500 06004KT P6SM SKC
     FM282200 12003KT P6SM SKC=



Latest METAR

569
SAUS70 KWBC 281400 RRC
MTRGSP
METAR KGSP 281353Z 30005KT 10SM CLR 01/M13 A3023 RMK AO2 SLP242
T00061128


USA.gov is the U.S. government's official web portal to all federal, state and local government web resources and services.